sensor_id;sensor_type;location;lat;lon;timestamp;P1;durP1;ratioP1;P2;durP2;ratioP2
52534;SDS011;38443;53.164;5.802;2023-08-01T00:01:00;7.65;;;3.60;;
52534;SDS011;38443;53.164;5.802;2023-08-01T00:03:25;7.82;;;3.95;;
52534;SDS011;38443;53.164;5.802;2023-08-01T00:05:51;6.13;;;3.08;;
52534;SDS011;38443;53.164;5.802;2023-08-01T00:08:16;7.30;;;3.50;;
52534;SDS011;38443;53.164;5.802;2023-08-01T00:10:42;8.55;;;3.10;;
52534;SDS011;38443;53.164;5.802;2023-08-01T00:13:07;6.35;;;2.95;;
52534;SDS011;38443;53.164;5.802;2023-08-01T00:15:33;6.05;;;2.88;;
52534;SDS011;38443;53.164;5.802;2023-08-01T00:17:59;6.28;;;3.30;;
52534;SDS011;38443;53.164;5.802;2023-08-01T00:20:24;7.50;;;2.67;;
52534;SDS011;38443;53.164;5.802;2023-08-01T00:22:50;6.32;;;2.88;;
52534;SDS011;38443;53.164;5.802;2023-08-01T00:25:15;8.30;;;3.60;;
52534;SDS011;38443;53.164;5.802;2023-08-01T00:27:41;5.78;;;2.63;;
52534;SDS011;38443;53.164;5.802;2023-08-01T00:30:07;5.22;;;3.17;;
52534;SDS011;38443;53.164;5.802;2023-08-01T00:32:34;6.90;;;2.90;;
52534;SDS011;38443;53.164;5.802;2023-08-01T00:34:59;10.23;;;2.67;;
52534;SDS011;38443;53.164;5.802;2023-08-01T00:37:25;5.72;;;2.58;;
52534;SDS011;38443;53.164;5.802;2023-08-01T00:39:50;8.20;;;2.30;;
52534;SDS011;38443;53.164;5.802;2023-08-01T00:42:15;5.93;;;3.15;;
52534;SDS011;38443;53.164;5.802;2023-08-01T00:44:41;13.02;;;3.15;;
52534;SDS011;38443;53.164;5.802;2023-08-01T00:47:06;7.93;;;3.40;;
52534;SDS011;38443;53.164;5.802;2023-08-01T00:49:32;7.10;;;2.70;;
52534;SDS011;38443;53.164;5.802;2023-08-01T00:51:57;6.40;;;2.90;;
52534;SDS011;38443;53.164;5.802;2023-08-01T00:54:23;11.07;;;3.47;;
52534;SDS011;38443;53.164;5.802;2023-08-01T00:56:48;9.20;;;2.72;;
52534;SDS011;38443;53.164;5.802;2023-08-01T00:59:15;5.95;;;3.33;;
52534;SDS011;38443;53.164;5.802;2023-08-01T01:01:40;5.35;;;3.10;;
52534;SDS011;38443;53.164;5.802;2023-08-01T01:04:06;9.38;;;3.50;;
52534;SDS011;38443;53.164;5.802;2023-08-01T01:06:32;10.57;;;3.15;;
52534;SDS011;38443;53.164;5.802;2023-08-01T01:09:02;6.13;;;3.00;;
52534;SDS011;38443;53.164;5.802;2023-08-01T01:11:38;5.53;;;3.35;;
52534;SDS011;38443;53.164;5.802;2023-08-01T01:14:04;9.68;;;3.55;;
52534;SDS011;38443;53.164;5.802;2023-08-01T01:16:29;6.57;;;3.67;;
52534;SDS011;38443;53.164;5.802;2023-08-01T01:18:54;6.45;;;3.40;;
52534;SDS011;38443;53.164;5.802;2023-08-01T01:21:20;6.55;;;3.08;;
52534;SDS011;38443;53.164;5.802;2023-08-01T01:23:45;6.35;;;3.78;;
52534;SDS011;38443;53.164;5.802;2023-08-01T01:26:12;9.02;;;3.70;;
52534;SDS011;38443;53.164;5.802;2023-08-01T01:28:41;6.63;;;3.80;;
52534;SDS011;38443;53.164;5.802;2023-08-01T01:31:08;7.75;;;3.72;;
52534;SDS011;38443;53.164;5.802;2023-08-01T01:33:34;6.95;;;3.40;;
52534;SDS011;38443;53.164;5.802;2023-08-01T01:36:00;8.10;;;3.80;;
52534;SDS011;38443;53.164;5.802;2023-08-01T01:38:26;7.18;;;3.08;;
52534;SDS011;38443;53.164;5.802;2023-08-01T01:40:51;5.72;;;3.88;;
52534;SDS011;38443;53.164;5.802;2023-08-01T01:43:17;8.05;;;3.72;;
52534;SDS011;38443;53.164;5.802;2023-08-01T01:45:42;5.80;;;3.53;;
52534;SDS011;38443;53.164;5.802;2023-08-01T01:48:08;8.57;;;3.75;;
52534;SDS011;38443;53.164;5.802;2023-08-01T01:50:33;8.57;;;3.75;;
52534;SDS011;38443;53.164;5.802;2023-08-01T01:52:59;9.35;;;4.10;;
52534;SDS011;38443;53.164;5.802;2023-08-01T01:55:24;10.55;;;3.85;;
52534;SDS011;38443;53.164;5.802;2023-08-01T01:57:49;9.63;;;4.65;;
52534;SDS011;38443;53.164;5.802;2023-08-01T02:02:44;11.20;;;4.20;;
52534;SDS011;38443;53.164;5.802;2023-08-01T02:05:10;7.80;;;4.43;;
52534;SDS011;38443;53.164;5.802;2023-08-01T02:07:35;9.70;;;4.03;;
52534;SDS011;38443;53.164;5.802;2023-08-01T02:10:01;8.75;;;4.20;;
52534;SDS011;38443;53.164;5.802;2023-08-01T02:12:27;8.50;;;4.03;;
52534;SDS011;38443;53.164;5.802;2023-08-01T02:14:56;8.32;;;3.85;;
52534;SDS011;38443;53.164;5.802;2023-08-01T02:17:22;11.38;;;3.47;;
52534;SDS011;38443;53.164;5.802;2023-08-01T02:19:47;7.35;;;3.92;;
52534;SDS011;38443;53.164;5.802;2023-08-01T02:22:12;9.95;;;3.90;;
52534;SDS011;38443;53.164;5.802;2023-08-01T02:24:38;9.57;;;4.57;;
52534;SDS011;38443;53.164;5.802;2023-08-01T02:27:03;6.85;;;3.47;;
52534;SDS011;38443;53.164;5.802;2023-08-01T02:29:29;6.68;;;4.05;;
52534;SDS011;38443;53.164;5.802;2023-08-01T02:31:54;5.95;;;3.67;;
52534;SDS011;38443;53.164;5.802;2023-08-01T02:34:21;7.95;;;3.40;;
52534;SDS011;38443;53.164;5.802;2023-08-01T02:36:46;10.00;;;3.42;;
52534;SDS011;38443;53.164;5.802;2023-08-01T02:39:11;7.25;;;3.08;;
52534;SDS011;38443;53.164;5.802;2023-08-01T02:41:37;4.22;;;2.65;;
52534;SDS011;38443;53.164;5.802;2023-08-01T02:44:02;6.10;;;2.55;;
52534;SDS011;38443;53.164;5.802;2023-08-01T02:46:28;5.13;;;2.33;;
52534;SDS011;38443;53.164;5.802;2023-08-01T02:48:54;7.45;;;2.33;;
52534;SDS011;38443;53.164;5.802;2023-08-01T02:51:20;4.85;;;2.58;;
52534;SDS011;38443;53.164;5.802;2023-08-01T02:53:45;8.77;;;2.40;;
52534;SDS011;38443;53.164;5.802;2023-08-01T02:56:10;6.35;;;2.30;;
52534;SDS011;38443;53.164;5.802;2023-08-01T02:58:36;4.50;;;1.70;;
52534;SDS011;38443;53.164;5.802;2023-08-01T03:01:05;3.03;;;1.85;;
52534;SDS011;38443;53.164;5.802;2023-08-01T03:03:32;6.68;;;2.05;;
52534;SDS011;38443;53.164;5.802;2023-08-01T03:05:57;5.22;;;1.73;;
52534;SDS011;38443;53.164;5.802;2023-08-01T03:08:22;3.22;;;1.70;;
52534;SDS011;38443;53.164;5.802;2023-08-01T03:10:48;2.67;;;1.40;;
52534;SDS011;38443;53.164;5.802;2023-08-01T03:13:14;5.97;;;1.83;;
52534;SDS011;38443;53.164;5.802;2023-08-01T03:15:39;3.45;;;1.65;;
52534;SDS011;38443;53.164;5.802;2023-08-01T03:18:04;3.63;;;1.85;;
52534;SDS011;38443;53.164;5.802;2023-08-01T03:20:30;4.30;;;1.70;;
52534;SDS011;38443;53.164;5.802;2023-08-01T03:22:55;6.05;;;1.92;;
52534;SDS011;38443;53.164;5.802;2023-08-01T03:25:20;4.20;;;1.90;;
52534;SDS011;38443;53.164;5.802;2023-08-01T03:27:46;1.88;;;1.35;;
52534;SDS011;38443;53.164;5.802;2023-08-01T03:30:11;5.43;;;1.83;;
52534;SDS011;38443;53.164;5.802;2023-08-01T03:32:37;5.03;;;2.65;;
52534;SDS011;38443;53.164;5.802;2023-08-01T03:35:03;6.65;;;1.55;;
52534;SDS011;38443;53.164;5.802;2023-08-01T03:37:31;3.33;;;1.58;;
52534;SDS011;38443;53.164;5.802;2023-08-01T03:39:57;3.80;;;2.03;;
52534;SDS011;38443;53.164;5.802;2023-08-01T03:42:23;4.82;;;1.70;;
52534;SDS011;38443;53.164;5.802;2023-08-01T03:44:48;2.85;;;1.92;;
52534;SDS011;38443;53.164;5.802;2023-08-01T03:47:13;4.25;;;1.55;;
52534;SDS011;38443;53.164;5.802;2023-08-01T03:49:39;3.25;;;1.45;;
52534;SDS011;38443;53.164;5.802;2023-08-01T03:52:05;2.20;;;1.63;;
52534;SDS011;38443;53.164;5.802;2023-08-01T03:54:30;3.55;;;1.90;;
52534;SDS011;38443;53.164;5.802;2023-08-01T03:56:56;4.32;;;1.80;;
52534;SDS011;38443;53.164;5.802;2023-08-01T03:59:21;4.40;;;1.42;;
52534;SDS011;38443;53.164;5.802;2023-08-01T04:01:47;3.00;;;1.95;;
52534;SDS011;38443;53.164;5.802;2023-08-01T04:04:12;6.80;;;2.17;;
52534;SDS011;38443;53.164;5.802;2023-08-01T04:06:38;4.60;;;1.40;;
52534;SDS011;38443;53.164;5.802;2023-08-01T04:09:03;3.22;;;1.52;;
52534;SDS011;38443;53.164;5.802;2023-08-01T04:11:30;3.70;;;1.90;;
52534;SDS011;38443;53.164;5.802;2023-08-01T04:13:56;3.20;;;1.90;;
52534;SDS011;38443;53.164;5.802;2023-08-01T04:16:21;3.42;;;2.00;;
52534;SDS011;38443;53.164;5.802;2023-08-01T04:18:47;6.78;;;2.60;;
52534;SDS011;38443;53.164;5.802;2023-08-01T04:21:13;4.80;;;2.90;;
52534;SDS011;38443;53.164;5.802;2023-08-01T04:23:39;4.95;;;2.88;;
52534;SDS011;38443;53.164;5.802;2023-08-01T04:26:05;6.10;;;2.58;;
52534;SDS011;38443;53.164;5.802;2023-08-01T04:28:31;5.28;;;2.75;;
52534;SDS011;38443;53.164;5.802;2023-08-01T04:30:57;4.95;;;2.80;;
52534;SDS011;38443;53.164;5.802;2023-08-01T04:33:22;4.60;;;2.70;;
52534;SDS011;38443;53.164;5.802;2023-08-01T04:35:48;5.28;;;2.60;;
52534;SDS011;38443;53.164;5.802;2023-08-01T04:38:14;12.18;;;3.83;;
52534;SDS011;38443;53.164;5.802;2023-08-01T04:40:40;3.70;;;2.40;;
52534;SDS011;38443;53.164;5.802;2023-08-01T04:43:05;6.70;;;2.88;;
52534;SDS011;38443;53.164;5.802;2023-08-01T04:45:31;6.07;;;2.88;;
52534;SDS011;38443;53.164;5.802;2023-08-01T04:47:56;8.25;;;3.03;;
52534;SDS011;38443;53.164;5.802;2023-08-01T04:50:21;7.40;;;3.40;;
52534;SDS011;38443;53.164;5.802;2023-08-01T04:52:47;6.43;;;3.25;;
52534;SDS011;38443;53.164;5.802;2023-08-01T04:55:12;8.63;;;4.10;;
52534;SDS011;38443;53.164;5.802;2023-08-01T04:57:37;5.03;;;2.95;;
52534;SDS011;38443;53.164;5.802;2023-08-01T05:00:03;11.60;;;3.35;;
52534;SDS011;38443;53.164;5.802;2023-08-01T05:02:29;5.28;;;2.80;;
52534;SDS011;38443;53.164;5.802;2023-08-01T05:04:55;12.18;;;3.88;;
52534;SDS011;38443;53.164;5.802;2023-08-01T05:07:20;7.50;;;3.58;;
52534;SDS011;38443;53.164;5.802;2023-08-01T05:09:45;10.68;;;6.45;;
52534;SDS011;38443;53.164;5.802;2023-08-01T05:12:11;4.85;;;2.53;;
52534;SDS011;38443;53.164;5.802;2023-08-01T05:14:36;4.57;;;2.85;;
52534;SDS011;38443;53.164;5.802;2023-08-01T05:17:01;5.38;;;2.08;;
52534;SDS011;38443;53.164;5.802;2023-08-01T05:19:27;7.28;;;2.67;;
52534;SDS011;38443;53.164;5.802;2023-08-01T05:21:52;5.60;;;2.08;;
52534;SDS011;38443;53.164;5.802;2023-08-01T05:24:18;9.20;;;2.05;;
52534;SDS011;38443;53.164;5.802;2023-08-01T05:26:43;6.90;;;1.77;;
52534;SDS011;38443;53.164;5.802;2023-08-01T05:29:08;2.22;;;1.38;;
52534;SDS011;38443;53.164;5.802;2023-08-01T05:31:34;2.78;;;1.10;;
52534;SDS011;38443;53.164;5.802;2023-08-01T05:33:59;1.90;;;1.20;;
52534;SDS011;38443;53.164;5.802;2023-08-01T05:36:24;5.70;;;1.70;;
52534;SDS011;38443;53.164;5.802;2023-08-01T05:38:50;4.18;;;1.42;;
52534;SDS011;38443;53.164;5.802;2023-08-01T05:41:15;3.13;;;1.15;;
52534;SDS011;38443;53.164;5.802;2023-08-01T05:43:40;3.40;;;2.10;;
52534;SDS011;38443;53.164;5.802;2023-08-01T05:46:06;1.73;;;1.27;;
52534;SDS011;38443;53.164;5.802;2023-08-01T05:48:31;4.15;;;1.10;;
52534;SDS011;38443;53.164;5.802;2023-08-01T05:50:56;4.28;;;1.80;;
52534;SDS011;38443;53.164;5.802;2023-08-01T05:53:23;2.83;;;1.83;;
52534;SDS011;38443;53.164;5.802;2023-08-01T05:55:48;4.45;;;1.92;;
52534;SDS011;38443;53.164;5.802;2023-08-01T05:58:14;2.50;;;1.60;;
52534;SDS011;38443;53.164;5.802;2023-08-01T06:00:39;6.03;;;2.30;;
52534;SDS011;38443;53.164;5.802;2023-08-01T06:03:05;2.65;;;1.85;;
52534;SDS011;38443;53.164;5.802;2023-08-01T06:05:30;3.17;;;1.50;;
52534;SDS011;38443;53.164;5.802;2023-08-01T06:07:56;3.05;;;1.70;;
52534;SDS011;38443;53.164;5.802;2023-08-01T06:10:21;7.25;;;2.03;;
52534;SDS011;38443;53.164;5.802;2023-08-01T06:12:47;4.13;;;1.40;;
52534;SDS011;38443;53.164;5.802;2023-08-01T06:15:12;5.40;;;1.70;;
52534;SDS011;38443;53.164;5.802;2023-08-01T06:17:38;3.22;;;1.63;;
52534;SDS011;38443;53.164;5.802;2023-08-01T06:20:03;5.32;;;1.80;;
52534;SDS011;38443;53.164;5.802;2023-08-01T06:22:30;3.35;;;1.42;;
52534;SDS011;38443;53.164;5.802;2023-08-01T06:24:55;2.45;;;1.75;;
52534;SDS011;38443;53.164;5.802;2023-08-01T06:27:21;5.45;;;1.83;;
52534;SDS011;38443;53.164;5.802;2023-08-01T06:29:46;7.45;;;3.15;;
52534;SDS011;38443;53.164;5.802;2023-08-01T06:32:12;5.00;;;2.10;;
52534;SDS011;38443;53.164;5.802;2023-08-01T06:34:37;5.10;;;2.33;;
52534;SDS011;38443;53.164;5.802;2023-08-01T06:37:03;7.60;;;2.47;;
52534;SDS011;38443;53.164;5.802;2023-08-01T06:39:29;5.63;;;2.38;;
52534;SDS011;38443;53.164;5.802;2023-08-01T06:41:55;9.48;;;2.47;;
52534;SDS011;38443;53.164;5.802;2023-08-01T06:44:20;5.90;;;1.90;;
52534;SDS011;38443;53.164;5.802;2023-08-01T06:46:46;2.83;;;1.90;;
52534;SDS011;38443;53.164;5.802;2023-08-01T06:49:11;5.93;;;2.15;;
52534;SDS011;38443;53.164;5.802;2023-08-01T06:51:36;5.78;;;2.15;;
52534;SDS011;38443;53.164;5.802;2023-08-01T06:54:02;5.80;;;1.67;;
52534;SDS011;38443;53.164;5.802;2023-08-01T06:56:27;5.45;;;3.25;;
52534;SDS011;38443;53.164;5.802;2023-08-01T06:58:52;4.85;;;2.47;;
52534;SDS011;38443;53.164;5.802;2023-08-01T07:01:18;4.43;;;2.10;;
52534;SDS011;38443;53.164;5.802;2023-08-01T07:03:44;4.53;;;1.90;;
52534;SDS011;38443;53.164;5.802;2023-08-01T07:06:10;3.08;;;2.05;;
52534;SDS011;38443;53.164;5.802;2023-08-01T07:08:36;4.82;;;2.10;;
52534;SDS011;38443;53.164;5.802;2023-08-01T07:11:01;6.13;;;2.00;;
52534;SDS011;38443;53.164;5.802;2023-08-01T07:13:27;6.45;;;2.28;;
52534;SDS011;38443;53.164;5.802;2023-08-01T07:15:53;6.18;;;3.05;;
52534;SDS011;38443;53.164;5.802;2023-08-01T07:18:18;9.00;;;2.42;;
52534;SDS011;38443;53.164;5.802;2023-08-01T07:20:44;8.10;;;2.40;;
52534;SDS011;38443;53.164;5.802;2023-08-01T07:23:09;5.97;;;2.08;;
52534;SDS011;38443;53.164;5.802;2023-08-01T07:25:35;3.70;;;1.83;;
52534;SDS011;38443;53.164;5.802;2023-08-01T07:28:00;8.85;;;2.28;;
52534;SDS011;38443;53.164;5.802;2023-08-01T07:30:26;4.80;;;1.90;;
52534;SDS011;38443;53.164;5.802;2023-08-01T07:32:52;3.95;;;1.63;;
52534;SDS011;38443;53.164;5.802;2023-08-01T07:35:17;5.30;;;2.20;;
52534;SDS011;38443;53.164;5.802;2023-08-01T07:37:43;5.38;;;1.90;;
52534;SDS011;38443;53.164;5.802;2023-08-01T07:40:08;3.58;;;1.70;;
52534;SDS011;38443;53.164;5.802;2023-08-01T07:42:34;6.13;;;1.92;;
52534;SDS011;38443;53.164;5.802;2023-08-01T07:44:59;4.88;;;1.70;;
52534;SDS011;38443;53.164;5.802;2023-08-01T07:47:25;6.18;;;2.25;;
52534;SDS011;38443;53.164;5.802;2023-08-01T07:49:51;4.35;;;1.92;;
52534;SDS011;38443;53.164;5.802;2023-08-01T07:52:17;4.53;;;2.00;;
52534;SDS011;38443;53.164;5.802;2023-08-01T07:54:42;5.53;;;1.70;;
52534;SDS011;38443;53.164;5.802;2023-08-01T07:57:08;4.13;;;1.67;;
52534;SDS011;38443;53.164;5.802;2023-08-01T07:59:33;5.00;;;2.00;;
52534;SDS011;38443;53.164;5.802;2023-08-01T08:01:58;6.53;;;2.70;;
52534;SDS011;38443;53.164;5.802;2023-08-01T08:04:24;5.95;;;2.03;;
52534;SDS011;38443;53.164;5.802;2023-08-01T08:06:49;5.10;;;1.95;;
52534;SDS011;38443;53.164;5.802;2023-08-01T08:09:15;3.35;;;2.03;;
52534;SDS011;38443;53.164;5.802;2023-08-01T08:11:40;6.85;;;2.25;;
52534;SDS011;38443;53.164;5.802;2023-08-01T08:14:05;4.82;;;1.90;;
52534;SDS011;38443;53.164;5.802;2023-08-01T08:16:31;8.23;;;2.30;;
52534;SDS011;38443;53.164;5.802;2023-08-01T08:18:56;7.25;;;2.40;;
52534;SDS011;38443;53.164;5.802;2023-08-01T08:21:21;7.57;;;2.40;;
52534;SDS011;38443;53.164;5.802;2023-08-01T08:23:47;8.02;;;2.38;;
52534;SDS011;38443;53.164;5.802;2023-08-01T08:26:12;6.63;;;3.08;;
52534;SDS011;38443;53.164;5.802;2023-08-01T08:28:37;4.47;;;2.38;;
52534;SDS011;38443;53.164;5.802;2023-08-01T08:31:04;4.75;;;2.00;;
52534;SDS011;38443;53.164;5.802;2023-08-01T08:33:30;5.13;;;1.98;;
52534;SDS011;38443;53.164;5.802;2023-08-01T08:35:55;3.42;;;1.80;;
52534;SDS011;38443;53.164;5.802;2023-08-01T08:38:21;6.28;;;1.70;;
52534;SDS011;38443;53.164;5.802;2023-08-01T08:40:59;2.13;;;1.55;;
52534;SDS011;38443;53.164;5.802;2023-08-01T08:43:32;8.32;;;2.90;;
52534;SDS011;38443;53.164;5.802;2023-08-01T08:45:59;4.88;;;1.70;;
52534;SDS011;38443;53.164;5.802;2023-08-01T08:48:26;6.82;;;1.95;;
52534;SDS011;38443;53.164;5.802;2023-08-01T08:50:52;3.45;;;1.90;;
52534;SDS011;38443;53.164;5.802;2023-08-01T08:53:17;7.80;;;1.80;;
52534;SDS011;38443;53.164;5.802;2023-08-01T08:55:43;3.53;;;1.90;;
52534;SDS011;38443;53.164;5.802;2023-08-01T08:58:08;4.60;;;2.50;;
52534;SDS011;38443;53.164;5.802;2023-08-01T09:00:37;5.85;;;2.30;;
52534;SDS011;38443;53.164;5.802;2023-08-01T09:03:03;5.15;;;2.30;;
52534;SDS011;38443;53.164;5.802;2023-08-01T09:05:31;5.75;;;1.98;;
52534;SDS011;38443;53.164;5.802;2023-08-01T09:08:00;5.40;;;1.90;;
52534;SDS011;38443;53.164;5.802;2023-08-01T09:10:30;7.88;;;4.72;;
52534;SDS011;38443;53.164;5.802;2023-08-01T09:12:56;4.97;;;2.00;;
52534;SDS011;38443;53.164;5.802;2023-08-01T09:15:22;5.53;;;2.67;;
52534;SDS011;38443;53.164;5.802;2023-08-01T09:17:51;3.92;;;2.33;;
52534;SDS011;38443;53.164;5.802;2023-08-01T09:20:18;4.03;;;2.00;;
52534;SDS011;38443;53.164;5.802;2023-08-01T09:22:46;8.45;;;2.35;;
52534;SDS011;38443;53.164;5.802;2023-08-01T09:25:12;7.93;;;2.60;;
52534;SDS011;38443;53.164;5.802;2023-08-01T09:27:39;4.45;;;2.85;;
52534;SDS011;38443;53.164;5.802;2023-08-01T09:30:06;6.32;;;2.63;;
52534;SDS011;38443;53.164;5.802;2023-08-01T09:32:36;6.32;;;3.03;;
52534;SDS011;38443;53.164;5.802;2023-08-01T09:35:02;5.18;;;2.78;;
52534;SDS011;38443;53.164;5.802;2023-08-01T09:37:37;6.50;;;2.65;;
52534;SDS011;38443;53.164;5.802;2023-08-01T09:40:07;9.68;;;3.15;;
52534;SDS011;38443;53.164;5.802;2023-08-01T09:42:42;5.00;;;2.15;;
52534;SDS011;38443;53.164;5.802;2023-08-01T09:45:13;3.75;;;2.83;;
52534;SDS011;38443;53.164;5.802;2023-08-01T09:47:42;2.58;;;1.85;;
52534;SDS011;38443;53.164;5.802;2023-08-01T09:50:09;7.25;;;2.63;;
52534;SDS011;38443;53.164;5.802;2023-08-01T09:52:36;4.60;;;2.30;;
52534;SDS011;38443;53.164;5.802;2023-08-01T09:55:01;7.95;;;2.65;;
52534;SDS011;38443;53.164;5.802;2023-08-01T09:57:28;6.80;;;2.80;;
52534;SDS011;38443;53.164;5.802;2023-08-01T09:59:58;4.43;;;2.25;;
52534;SDS011;38443;53.164;5.802;2023-08-01T10:02:25;5.30;;;2.20;;
52534;SDS011;38443;53.164;5.802;2023-08-01T10:04:53;2.90;;;1.88;;
52534;SDS011;38443;53.164;5.802;2023-08-01T10:07:23;3.33;;;1.95;;
52534;SDS011;38443;53.164;5.802;2023-08-01T10:09:57;4.03;;;2.05;;
52534;SDS011;38443;53.164;5.802;2023-08-01T10:12:23;3.47;;;2.22;;
52534;SDS011;38443;53.164;5.802;2023-08-01T10:14:51;5.13;;;1.75;;
52534;SDS011;38443;53.164;5.802;2023-08-01T10:17:17;7.65;;;3.30;;
52534;SDS011;38443;53.164;5.802;2023-08-01T10:19:44;3.60;;;1.90;;
52534;SDS011;38443;53.164;5.802;2023-08-01T10:22:10;4.20;;;2.20;;
52534;SDS011;38443;53.164;5.802;2023-08-01T10:24:36;5.60;;;1.65;;
52534;SDS011;38443;53.164;5.802;2023-08-01T10:27:12;4.90;;;1.70;;
52534;SDS011;38443;53.164;5.802;2023-08-01T10:29:38;5.60;;;1.83;;
52534;SDS011;38443;53.164;5.802;2023-08-01T10:32:06;4.70;;;2.03;;
52534;SDS011;38443;53.164;5.802;2023-08-01T10:34:31;3.70;;;1.60;;
52534;SDS011;38443;53.164;5.802;2023-08-01T10:36:57;6.03;;;1.90;;
52534;SDS011;38443;53.164;5.802;2023-08-01T10:39:24;3.95;;;1.70;;
52534;SDS011;38443;53.164;5.802;2023-08-01T10:41:57;5.00;;;2.13;;
52534;SDS011;38443;53.164;5.802;2023-08-01T10:44:24;3.38;;;1.60;;
52534;SDS011;38443;53.164;5.802;2023-08-01T10:46:50;3.33;;;1.58;;
52534;SDS011;38443;53.164;5.802;2023-08-01T10:49:17;3.20;;;1.70;;
52534;SDS011;38443;53.164;5.802;2023-08-01T10:51:44;2.20;;;1.40;;
52534;SDS011;38443;53.164;5.802;2023-08-01T10:56:46;4.53;;;1.67;;
52534;SDS011;38443;53.164;5.802;2023-08-01T10:59:13;2.08;;;1.70;;
52534;SDS011;38443;53.164;5.802;2023-08-01T11:01:52;5.85;;;2.42;;
52534;SDS011;38443;53.164;5.802;2023-08-01T11:04:19;6.43;;;2.00;;
52534;SDS011;38443;53.164;5.802;2023-08-01T11:06:46;5.43;;;1.73;;
52534;SDS011;38443;53.164;5.802;2023-08-01T11:09:17;4.32;;;2.47;;
52534;SDS011;38443;53.164;5.802;2023-08-01T11:11:43;7.10;;;2.35;;
52534;SDS011;38443;53.164;5.802;2023-08-01T11:14:09;4.88;;;2.60;;
52534;SDS011;38443;53.164;5.802;2023-08-01T11:16:36;5.90;;;2.30;;
52534;SDS011;38443;53.164;5.802;2023-08-01T11:19:02;4.97;;;2.35;;
52534;SDS011;38443;53.164;5.802;2023-08-01T11:21:27;4.00;;;2.22;;
52534;SDS011;38443;53.164;5.802;2023-08-01T11:23:53;7.63;;;2.25;;
52534;SDS011;38443;53.164;5.802;2023-08-01T11:26:18;5.43;;;2.40;;
52534;SDS011;38443;53.164;5.802;2023-08-01T11:28:44;4.68;;;2.33;;
52534;SDS011;38443;53.164;5.802;2023-08-01T11:31:10;5.05;;;2.28;;
52534;SDS011;38443;53.164;5.802;2023-08-01T11:33:37;6.28;;;2.05;;
52534;SDS011;38443;53.164;5.802;2023-08-01T11:36:03;4.05;;;2.30;;
52534;SDS011;38443;53.164;5.802;2023-08-01T11:38:32;3.08;;;2.53;;
52534;SDS011;38443;53.164;5.802;2023-08-01T11:41:03;4.70;;;1.83;;
52534;SDS011;38443;53.164;5.802;2023-08-01T11:43:41;5.05;;;1.85;;
52534;SDS011;38443;53.164;5.802;2023-08-01T11:46:07;2.17;;;1.90;;
52534;SDS011;38443;53.164;5.802;2023-08-01T11:48:33;4.38;;;2.53;;
52534;SDS011;38443;53.164;5.802;2023-08-01T11:50:59;5.07;;;2.15;;
52534;SDS011;38443;53.164;5.802;2023-08-01T11:53:25;3.17;;;1.95;;
52534;SDS011;38443;53.164;5.802;2023-08-01T11:55:51;3.13;;;2.20;;
52534;SDS011;38443;53.164;5.802;2023-08-01T11:58:40;7.43;;;2.80;;
52534;SDS011;38443;53.164;5.802;2023-08-01T12:01:10;6.68;;;2.47;;
52534;SDS011;38443;53.164;5.802;2023-08-01T12:03:43;6.72;;;2.58;;
52534;SDS011;38443;53.164;5.802;2023-08-01T12:06:11;5.38;;;2.10;;
52534;SDS011;38443;53.164;5.802;2023-08-01T12:08:38;4.32;;;1.50;;
52534;SDS011;38443;53.164;5.802;2023-08-01T12:11:17;2.40;;;1.80;;
52534;SDS011;38443;53.164;5.802;2023-08-01T12:13:44;4.78;;;2.00;;
52534;SDS011;38443;53.164;5.802;2023-08-01T12:16:09;6.28;;;2.13;;
52534;SDS011;38443;53.164;5.802;2023-08-01T12:18:34;5.53;;;2.30;;
52534;SDS011;38443;53.164;5.802;2023-08-01T12:21:02;6.13;;;2.17;;
52534;SDS011;38443;53.164;5.802;2023-08-01T12:23:30;11.95;;;2.55;;
52534;SDS011;38443;53.164;5.802;2023-08-01T12:25:56;4.53;;;2.10;;
52534;SDS011;38443;53.164;5.802;2023-08-01T12:28:21;5.40;;;1.70;;
52534;SDS011;38443;53.164;5.802;2023-08-01T12:30:46;6.72;;;2.30;;
52534;SDS011;38443;53.164;5.802;2023-08-01T12:33:11;6.03;;;1.80;;
52534;SDS011;38443;53.164;5.802;2023-08-01T12:35:40;3.42;;;2.00;;
52534;SDS011;38443;53.164;5.802;2023-08-01T12:38:07;7.88;;;2.67;;
52534;SDS011;38443;53.164;5.802;2023-08-01T12:40:32;7.18;;;2.75;;
52534;SDS011;38443;53.164;5.802;2023-08-01T12:42:58;8.13;;;2.10;;
52534;SDS011;38443;53.164;5.802;2023-08-01T12:45:23;3.63;;;2.15;;
52534;SDS011;38443;53.164;5.802;2023-08-01T12:47:49;3.80;;;2.10;;
52534;SDS011;38443;53.164;5.802;2023-08-01T12:50:14;3.63;;;1.85;;
52534;SDS011;38443;53.164;5.802;2023-08-01T12:52:40;6.80;;;1.90;;
52534;SDS011;38443;53.164;5.802;2023-08-01T12:55:05;1.80;;;1.65;;
52534;SDS011;38443;53.164;5.802;2023-08-01T12:57:31;4.10;;;1.83;;
52534;SDS011;38443;53.164;5.802;2023-08-01T12:59:56;6.32;;;2.72;;
52534;SDS011;38443;53.164;5.802;2023-08-01T13:02:22;3.63;;;1.80;;
52534;SDS011;38443;53.164;5.802;2023-08-01T13:04:47;7.82;;;1.98;;
52534;SDS011;38443;53.164;5.802;2023-08-01T13:07:12;3.05;;;1.70;;
52534;SDS011;38443;53.164;5.802;2023-08-01T13:09:38;5.93;;;1.92;;
52534;SDS011;38443;53.164;5.802;2023-08-01T13:12:04;4.70;;;1.85;;
52534;SDS011;38443;53.164;5.802;2023-08-01T13:14:31;4.20;;;1.80;;
52534;SDS011;38443;53.164;5.802;2023-08-01T13:16:56;4.88;;;1.77;;
52534;SDS011;38443;53.164;5.802;2023-08-01T13:19:22;4.85;;;1.70;;
52534;SDS011;38443;53.164;5.802;2023-08-01T13:21:48;1.50;;;1.27;;
52534;SDS011;38443;53.164;5.802;2023-08-01T13:24:13;2.83;;;1.70;;
52534;SDS011;38443;53.164;5.802;2023-08-01T13:26:38;2.03;;;1.63;;
52534;SDS011;38443;53.164;5.802;2023-08-01T13:29:04;5.72;;;1.67;;
52534;SDS011;38443;53.164;5.802;2023-08-01T13:31:29;4.70;;;1.67;;
52534;SDS011;38443;53.164;5.802;2023-08-01T13:33:55;7.00;;;1.85;;
52534;SDS011;38443;53.164;5.802;2023-08-01T13:36:20;3.85;;;1.77;;
52534;SDS011;38443;53.164;5.802;2023-08-01T13:38:46;3.28;;;1.35;;
52534;SDS011;38443;53.164;5.802;2023-08-01T13:41:11;3.58;;;1.67;;
52534;SDS011;38443;53.164;5.802;2023-08-01T13:43:37;6.03;;;2.17;;
52534;SDS011;38443;53.164;5.802;2023-08-01T13:46:12;4.53;;;1.90;;
52534;SDS011;38443;53.164;5.802;2023-08-01T13:48:40;4.70;;;2.55;;
52534;SDS011;38443;53.164;5.802;2023-08-01T13:51:06;2.92;;;1.90;;
52534;SDS011;38443;53.164;5.802;2023-08-01T13:53:31;4.60;;;2.10;;
52534;SDS011;38443;53.164;5.802;2023-08-01T13:55:57;3.20;;;1.58;;
52534;SDS011;38443;53.164;5.802;2023-08-01T13:58:22;3.97;;;1.75;;
52534;SDS011;38443;53.164;5.802;2023-08-01T14:00:48;2.30;;;1.40;;
52534;SDS011;38443;53.164;5.802;2023-08-01T14:03:13;3.05;;;1.50;;
52534;SDS011;38443;53.164;5.802;2023-08-01T14:05:38;3.22;;;2.00;;
52534;SDS011;38443;53.164;5.802;2023-08-01T14:08:04;4.07;;;2.10;;
52534;SDS011;38443;53.164;5.802;2023-08-01T14:10:30;1.67;;;1.40;;
52534;SDS011;38443;53.164;5.802;2023-08-01T14:12:55;2.75;;;1.60;;
52534;SDS011;38443;53.164;5.802;2023-08-01T14:15:20;3.47;;;2.10;;
52534;SDS011;38443;53.164;5.802;2023-08-01T14:17:46;6.63;;;2.13;;
52534;SDS011;38443;53.164;5.802;2023-08-01T14:20:11;2.80;;;2.03;;
52534;SDS011;38443;53.164;5.802;2023-08-01T14:22:37;3.55;;;2.25;;
52534;SDS011;38443;53.164;5.802;2023-08-01T14:25:03;3.55;;;2.28;;
52534;SDS011;38443;53.164;5.802;2023-08-01T14:27:29;6.47;;;2.20;;
52534;SDS011;38443;53.164;5.802;2023-08-01T14:29:54;5.00;;;2.33;;
52534;SDS011;38443;53.164;5.802;2023-08-01T14:32:20;4.55;;;2.08;;
52534;SDS011;38443;53.164;5.802;2023-08-01T14:34:45;4.05;;;2.40;;
52534;SDS011;38443;53.164;5.802;2023-08-01T14:37:10;5.35;;;2.20;;
52534;SDS011;38443;53.164;5.802;2023-08-01T14:39:36;6.53;;;2.60;;
52534;SDS011;38443;53.164;5.802;2023-08-01T14:42:01;7.03;;;2.70;;
52534;SDS011;38443;53.164;5.802;2023-08-01T14:44:26;5.97;;;2.13;;
52534;SDS011;38443;53.164;5.802;2023-08-01T14:46:51;8.77;;;2.00;;